Time;durP1;ratioP1;P1;durP2;ratioP2;P2;SDS_P1;SDS_P2;PMS_P1;PMS_P2;Temp;Humidity;BMP_temperature;BMP_pressure;BME280_temperature;BME280_humidity;BME280_pressure;Samples;Min_cycle;Max_cycle;Signal;HPM_P1;HPM_P2
2022/11/18 00:00:45;;;;;;;45.90;32.40;;;6.30;99.90;;;;;;4965051;28;20050;-83
2022/11/18 00:03:11;;;;;;;49.07;31.97;;;6.30;99.90;;;;;;4967005;28;20133;-79
2022/11/18 00:05:36;;;;;;;45.70;31.80;;;6.50;99.90;;;;;;4967720;28;20049;-78
2022/11/18 00:08:02;;;;;;;47.27;31.90;;;6.30;99.90;;;;;;4937088;28;20489;-78
2022/11/18 00:10:28;;;;;;;52.47;33.33;;;6.20;99.90;;;;;;4961547;28;20055;-80
2022/11/18 00:15:38;;;;;;;45.03;31.87;;;6.40;99.90;;;;;;4969872;28;20046;-79
2022/11/18 00:18:03;;;;;;;50.50;34.03;;;6.30;99.90;;;;;;4953572;28;20561;-79
2022/11/18 00:20:29;;;;;;;47.83;31.50;;;6.30;99.90;;;;;;4968258;28;20621;-79
2022/11/18 00:22:55;;;;;;;46.17;31.63;;;6.30;99.90;;;;;;4968690;28;20058;-82
2022/11/18 00:25:20;;;;;;;50.00;32.20;;;6.40;99.90;;;;;;4962491;28;20122;-79
2022/11/18 00:27:46;;;;;;;52.83;33.03;;;6.20;99.90;;;;;;4953653;28;20054;-78
2022/11/18 00:30:12;;;;;;;45.43;31.57;;;6.40;99.90;;;;;;4965143;28;20130;-78
2022/11/18 00:32:37;;;;;;;52.50;32.87;;;6.30;99.90;;;;;;4952028;28;20126;-79
2022/11/18 00:35:03;;;;;;;49.60;32.10;;;6.40;99.90;;;;;;4951553;28;20391;-78
2022/11/18 00:37:29;;;;;;;49.53;31.37;;;6.20;99.90;;;;;;4954150;28;20054;-79
2022/11/18 00:39:55;;;;;;;47.73;31.23;;;6.30;99.90;;;;;;4967745;28;20047;-78
2022/11/18 00:45:05;;;;;;;48.20;31.67;;;6.40;99.90;;;;;;4969547;28;20078;-80
2022/11/18 00:47:31;;;;;;;45.83;31.63;;;6.30;99.90;;;;;;4947995;28;20058;-79
2022/11/18 00:49:56;;;;;;;46.73;30.90;;;6.30;99.90;;;;;;4949452;28;20044;-78
2022/11/18 00:52:22;;;;;;;49.20;30.03;;;6.20;99.90;;;;;;4967134;28;20051;-78
2022/11/18 00:54:48;;;;;;;49.77;31.53;;;6.40;99.90;;;;;;4961454;28;20570;-79
2022/11/18 00:57:13;;;;;;;48.70;30.80;;;6.20;99.90;;;;;;4936820;28;20575;-78
2022/11/18 00:59:39;;;;;;;46.07;30.27;;;6.30;99.90;;;;;;4952034;28;20527;-79
2022/11/18 01:02:04;;;;;;;45.87;30.23;;;6.30;99.90;;;;;;4964513;28;20331;-76
2022/11/18 01:04:30;;;;;;;49.00;30.20;;;6.10;99.90;;;;;;4968968;28;20256;-82
2022/11/18 01:06:56;;;;;;;47.57;31.40;;;6.10;99.90;;;;;;4937014;28;20264;-78
2022/11/18 01:09:21;;;;;;;50.90;30.60;;;6.20;99.90;;;;;;4948847;28;20051;-79
2022/11/18 01:14:31;;;;;;;51.43;31.17;;;6.30;99.90;;;;;;4965905;28;20055;-79
2022/11/18 01:16:57;;;;;;;52.30;34.27;;;6.30;99.90;;;;;;4951135;28;20050;-78
2022/11/18 01:19:23;;;;;;;55.83;34.67;;;6.30;99.90;;;;;;4949894;28;20047;-80
2022/11/18 01:21:49;;;;;;;61.17;35.03;;;6.20;99.90;;;;;;4964208;28;20134;-81
2022/11/18 01:24:15;;;;;;;62.53;35.10;;;6.20;99.90;;;;;;4948979;28;20141;-79
2022/11/18 01:26:41;;;;;;;57.70;34.63;;;6.40;99.90;;;;;;4951673;28;20505;-81
2022/11/18 01:29:07;;;;;;;63.87;36.20;;;6.30;99.90;;;;;;4961572;28;20434;-79
2022/11/18 01:31:33;;;;;;;61.60;35.37;;;6.10;99.90;;;;;;4964528;28;20044;-81
2022/11/18 01:33:58;;;;;;;73.57;39.23;;;6.10;99.90;;;;;;4970889;28;20062;-87
2022/11/18 01:36:26;;;;;;;68.20;37.90;;;6.20;99.90;;;;;;4960307;28;20125;-81
2022/11/18 01:38:53;;;;;;;69.97;37.83;;;6.40;99.90;;;;;;4968421;28;20042;-79
2022/11/18 01:41:22;;;;;;;75.07;38.13;;;6.10;99.90;;;;;;4968278;28;20078;-84
2022/11/18 01:43:48;;;;;;;70.97;40.17;;;6.10;99.90;;;;;;4951025;28;20047;-78
2022/11/18 01:46:13;;;;;;;75.03;42.33;;;6.10;99.90;;;;;;4958999;28;20054;-86
2022/11/18 01:48:39;;;;;;;83.67;42.80;;;6.10;99.90;;;;;;4958216;28;20604;-81
2022/11/18 01:51:15;;;;;;;76.50;41.57;;;6.10;99.90;;;;;;4961985;28;20094;-84
2022/11/18 01:53:47;;;;;;;80.43;42.83;;;6.20;99.90;;;;;;4963569;28;20429;-79
2022/11/18 01:56:21;;;;;;;85.97;45.90;;;6.10;99.90;;;;;;4959025;28;20053;-82
2022/11/18 01:58:55;;;;;;;94.40;44.47;;;6.30;99.90;;;;;;4957417;28;20150;-80
2022/11/18 02:01:21;;;;;;;88.90;46.90;;;6.30;99.90;;;;;;4943569;28;20473;-80
2022/11/18 02:03:48;;;;;;;94.37;47.37;;;6.30;99.90;;;;;;4969573;28;20055;-80
2022/11/18 02:06:14;;;;;;;91.53;45.90;;;6.30;99.90;;;;;;4960236;28;20063;-79
2022/11/18 02:08:41;;;;;;;88.03;45.33;;;6.20;99.90;;;;;;4960101;28;20050;-79
2022/11/18 02:11:49;;;;;;;89.10;44.47;;;6.20;99.90;;;;;;4950461;28;20109;-78
2022/11/18 02:14:01;;;;;;;91.80;45.47;;;6.20;99.90;;;;;;4969682;28;20130;-79
2022/11/18 02:16:55;;;;;;;82.17;41.93;;;6.10;99.90;;;;;;4942414;28;20537;-79
2022/11/18 02:19:59;;;;;;;88.80;43.27;;;6.10;99.90;;;;;;4966433;28;20524;-79
2022/11/18 02:22:48;;;;;;;93.93;46.87;;;6.20;99.90;;;;;;4928517;29;20630;-81
2022/11/18 02:25:33;;;;;;;89.90;43.97;;;6.20;99.90;;;;;;4964505;28;20422;-78
2022/11/18 02:28:36;;;;;;;92.93;44.20;;;6.10;99.90;;;;;;4936975;28;20083;-79
2022/11/18 02:31:09;;;;;;;83.87;42.00;;;6.20;99.90;;;;;;4964051;28;20066;-78
2022/11/18 02:33:43;;;;;;;84.70;41.17;;;6.10;99.90;;;;;;4963320;28;20059;-78
2022/11/18 02:36:19;;;;;;;88.90;42.37;;;6.10;99.90;;;;;;4964305;28;20061;-88
2022/11/18 02:38:49;;;;;;;78.67;40.80;;;6.20;99.90;;;;;;4964910;28;20148;-79
2022/11/18 02:41:21;;;;;;;84.17;41.47;;;6.10;99.90;;;;;;4970681;28;20069;-79
2022/11/18 02:43:58;;;;;;;81.67;40.40;;;6.20;99.90;;;;;;4950226;28;20048;-79
2022/11/18 02:46:29;;;;;;;78.13;39.03;;;6.10;99.90;;;;;;4958873;28;20141;-82
2022/11/18 02:48:56;;;;;;;76.25;39.75;;;6.10;99.90;;;;;;4954688;28;20051;-78
2022/11/18 02:51:27;;;;;;;76.60;38.10;;;6.10;99.90;;;;;;4963248;28;20051;-79
2022/11/18 02:53:58;;;;;;;79.72;39.83;;;6.20;99.90;;;;;;4954807;28;20047;-79
2022/11/18 02:56:25;;;;;;;83.20;39.33;;;5.90;99.90;;;;;;4951075;28;20050;-78
2022/11/18 02:58:51;;;;;;;72.43;36.67;;;5.90;99.90;;;;;;4967102;28;20772;-78
2022/11/18 03:01:24;;;;;;;72.70;38.00;;;5.80;99.90;;;;;;4968983;28;20051;-80
2022/11/18 03:03:50;;;;;;;85.23;40.17;;;5.90;99.90;;;;;;4967406;28;20062;-78
2022/11/18 03:06:27;;;;;;;82.13;39.90;;;5.90;99.90;;;;;;4962138;28;20047;-79
2022/11/18 03:09:07;;;;;;;85.00;39.27;;;6.00;99.90;;;;;;4960312;28;20467;-82
2022/11/18 03:11:49;;;;;;;103.53;43.20;;;5.90;99.90;;;;;;4968170;28;20078;-79
2022/11/18 03:14:51;;;;;;;92.03;41.10;;;5.80;99.90;;;;;;4970716;28;20058;-79
2022/11/18 03:17:34;;;;;;;87.67;39.47;;;6.00;99.90;;;;;;4939551;28;20097;-79
2022/11/18 03:20:09;;;;;;;86.57;39.03;;;5.70;99.90;;;;;;4965660;28;20135;-81
2022/11/18 03:22:40;;;;;;;77.30;35.83;;;5.80;99.90;;;;;;4965677;28;20047;-79
2022/11/18 03:25:11;;;;;;;;;;;5.80;99.90;;;;;;4969973;28;20509;-78
2022/11/18 03:27:56;;;;;;;70.05;34.38;;;5.80;99.90;;;;;;4949223;28;19933;-81
2022/11/18 03:30:23;;;;;;;71.13;34.70;;;6.00;99.90;;;;;;4961878;28;20130;-78
2022/11/18 03:33:15;;;;;;;64.30;33.13;;;5.90;99.90;;;;;;4968224;28;20078;-79
2022/11/18 03:35:44;;;;;;;54.67;30.70;;;5.90;99.90;;;;;;4965253;28;20493;-79
2022/11/18 03:38:15;;;;;;;56.80;31.07;;;5.80;99.90;;;;;;4953506;28;20055;-80
2022/11/18 03:40:48;;;;;;;52.25;25.02;;;5.70;99.90;;;;;;4951471;28;20050;-79
2022/11/18 03:43:18;;;;;;;54.97;30.30;;;5.70;99.90;;;;;;4963884;28;20090;-80
2022/11/18 03:45:51;;;;;;;57.13;30.50;;;5.90;99.90;;;;;;4950242;28;20502;-80
2022/11/18 03:48:27;;;;;;;56.63;31.73;;;5.60;99.90;;;;;;4936267;28;20490;-79
2022/11/18 03:51:09;;;;;;;53.63;30.53;;;5.80;99.90;;;;;;4964206;28;20125;-79
2022/11/18 03:53:39;;;;;;;57.53;30.80;;;5.70;99.90;;;;;;4966137;28;20051;-79
2022/11/18 03:56:14;;;;;;;53.47;29.23;;;5.80;99.90;;;;;;4968508;28;20042;-81
2022/11/18 03:59:03;;;;;;;59.30;29.77;;;5.90;99.90;;;;;;4962185;28;20135;-80
2022/11/18 04:01:51;;;;;;;50.63;28.80;;;5.70;99.90;;;;;;4967924;28;20501;-78
2022/11/18 04:04:18;;;;;;;51.43;28.87;;;5.70;99.90;;;;;;4969003;28;20046;-78
2022/11/18 04:07:08;;;;;;;46.60;27.43;;;5.80;99.90;;;;;;4954305;28;20051;-78
2022/11/18 04:10:01;;;;;;;49.23;27.50;;;5.90;99.90;;;;;;4966899;28;20054;-79
2022/11/18 04:12:31;;;;;;;44.83;27.60;;;5.70;99.90;;;;;;4966198;28;20055;-78
2022/11/18 04:14:58;;;;;;;45.50;26.48;;;5.50;99.90;;;;;;4965998;28;20043;-79
2022/11/18 04:17:26;;;;;;;46.43;27.03;;;5.70;99.90;;;;;;4952673;28;20387;-81
2022/11/18 04:19:52;;;;;;;46.93;27.23;;;5.70;99.90;;;;;;4968502;28;20082;-79
2022/11/18 04:22:18;;;;;;;44.40;26.30;;;5.60;99.90;;;;;;4966367;28;20133;-81
2022/11/18 04:24:45;;;;;;;45.40;26.03;;;5.50;99.90;;;;;;4964471;28;20042;-78
2022/11/18 04:27:10;;;;;;;44.73;25.40;;;5.60;99.90;;;;;;4949823;28;20043;-80
2022/11/18 04:29:36;;;;;;;50.33;27.40;;;5.70;99.90;;;;;;4952687;28;20241;-79
2022/11/18 04:32:03;;;;;;;49.73;27.63;;;5.50;99.90;;;;;;4951515;28;20058;-78
2022/11/18 04:34:29;;;;;;;45.37;27.03;;;5.60;99.90;;;;;;4968849;28;20039;-79
2022/11/18 04:36:55;;;;;;;42.67;24.83;;;5.70;99.90;;;;;;4934767;28;20059;-79
2022/11/18 04:39:21;;;;;;;47.07;27.10;;;5.70;99.90;;;;;;4949329;28;20055;-79
2022/11/18 04:41:56;;;;;;;47.33;25.40;;;5.60;99.90;;;;;;4965577;28;20050;-79
2022/11/18 04:44:30;;;;;;;47.07;24.17;;;5.60;99.90;;;;;;4964546;28;20047;-81
2022/11/18 04:46:58;;;;;;;42.83;24.83;;;5.60;99.90;;;;;;4950625;28;20492;-80
2022/11/18 04:49:24;;;;;;;41.43;24.53;;;5.70;99.90;;;;;;4960851;28;20078;-83
2022/11/18 04:51:51;;;;;;;42.10;24.30;;;5.70;99.90;;;;;;4950571;28;20051;-79
2022/11/18 04:54:17;;;;;;;46.13;25.30;;;5.50;99.90;;;;;;4968697;28;20070;-81
2022/11/18 04:56:44;;;;;;;45.03;24.93;;;5.50;99.90;;;;;;4950675;28;20122;-86
2022/11/18 04:59:11;;;;;;;44.97;25.70;;;5.50;99.90;;;;;;4954382;28;20520;-78
2022/11/18 05:01:36;;;;;;;41.73;25.07;;;5.60;99.90;;;;;;4968449;28;20051;-83
2022/11/18 05:04:04;;;;;;;42.83;24.97;;;5.50;99.90;;;;;;4967084;28;20536;-84
2022/11/18 05:06:30;;;;;;;47.23;25.33;;;5.60;99.90;;;;;;4960269;28;20065;-79
2022/11/18 05:08:57;;;;;;;35.80;23.23;;;5.50;99.90;;;;;;4962472;28;20122;-79
2022/11/18 05:14:08;;;;;;;44.70;24.27;;;5.50;99.90;;;;;;4970540;28;20061;-79
2022/11/18 05:16:34;;;;;;;38.73;24.17;;;5.40;99.90;;;;;;4954999;28;20046;-79
2022/11/18 05:19:02;;;;;;;39.93;24.57;;;5.50;99.90;;;;;;4969990;28;20055;-79
2022/11/18 05:21:28;;;;;;;34.40;22.23;;;5.70;99.90;;;;;;4954371;28;20051;-79
2022/11/18 05:23:53;;;;;;;39.00;23.50;;;5.50;99.90;;;;;;4967165;28;20097;-82
2022/11/18 05:26:19;;;;;;;37.80;24.97;;;5.40;99.90;;;;;;4959616;28;20057;-79
2022/11/18 05:28:45;;;;;;;42.67;23.33;;;5.60;99.90;;;;;;4949631;28;20059;-79
2022/11/18 05:31:13;;;;;;;37.80;23.87;;;5.40;99.90;;;;;;4969249;28;20051;-79
2022/11/18 05:33:39;;;;;;;39.23;24.03;;;5.50;99.90;;;;;;4970711;28;20070;-79
2022/11/18 05:36:13;;;;;;;38.77;23.80;;;5.50;99.90;;;;;;4972809;28;20151;-79
2022/11/18 05:38:39;;;;;;;40.00;23.20;;;5.40;99.90;;;;;;4949010;28;20058;-78
2022/11/18 05:41:06;;;;;;;42.83;23.60;;;5.50;99.90;;;;;;4970545;28;20046;-79
2022/11/18 05:43:32;;;;;;;44.07;24.40;;;5.50;99.90;;;;;;4968967;28;20058;-85
2022/11/18 05:45:58;;;;;;;44.13;24.30;;;5.30;99.90;;;;;;4972608;28;20086;-78
2022/11/18 05:48:24;;;;;;;42.50;24.23;;;5.40;99.90;;;;;;4954465;28;20047;-78
2022/11/18 05:50:52;;;;;;;49.00;25.33;;;5.40;99.90;;;;;;4967898;28;20101;-80
2022/11/18 05:53:19;;;;;;;45.27;25.50;;;5.60;99.90;;;;;;4966425;28;20069;-78
2022/11/18 05:56:19;;;;;;;45.47;24.70;;;5.40;99.90;;;;;;4970380;28;20046;-79
2022/11/18 05:58:44;;;;;;;49.00;25.63;;;5.30;99.90;;;;;;4944993;28;20307;-80
2022/11/18 06:01:13;;;;;;;48.73;25.77;;;5.30;99.90;;;;;;4968729;28;20082;-79
2022/11/18 06:03:40;;;;;;;52.63;25.47;;;5.30;99.90;;;;;;4954596;28;20054;-78
2022/11/18 06:06:08;;;;;;;46.07;25.07;;;5.30;99.90;;;;;;4969616;28;20057;-79
2022/11/18 06:08:42;;;;;;;49.40;25.90;;;5.40;99.90;;;;;;4931708;28;20135;-79
2022/11/18 06:11:12;;;;;;;48.87;25.77;;;5.30;99.90;;;;;;4969041;28;20412;-79
2022/11/18 06:13:49;;;;;;;46.83;24.90;;;5.40;99.90;;;;;;4954291;28;20479;-79
2022/11/18 06:16:20;;;;;;;53.10;27.13;;;5.40;99.90;;;;;;4945924;28;20623;-79
2022/11/18 06:18:45;;;;;;;56.72;26.80;;;5.20;99.90;;;;;;4963841;28;20090;-79
2022/11/18 06:21:12;;;;;;;50.87;26.23;;;5.30;99.90;;;;;;4970187;28;20141;-82
2022/11/18 06:23:40;;;;;;;52.10;25.73;;;5.30;99.90;;;;;;4966904;28;20535;-78
2022/11/18 06:26:08;;;;;;;51.00;26.47;;;5.20;99.90;;;;;;4952929;28;20075;-87
2022/11/18 06:28:34;;;;;;;52.03;28.10;;;5.20;99.90;;;;;;4955231;28;20053;-79
2022/11/18 06:31:00;;;;;;;51.27;26.97;;;5.20;99.90;;;;;;4951309;28;20054;-79
2022/11/18 06:33:26;;;;;;;55.60;26.93;;;5.70;99.90;;;;;;4960916;28;20062;-80
2022/11/18 06:35:51;;;;;;;57.53;27.30;;;5.30;99.90;;;;;;4966138;28;20129;-79
2022/11/18 06:38:17;;;;;;;58.50;29.70;;;5.30;99.90;;;;;;4953848;28;20050;-79
2022/11/18 06:40:43;;;;;;;64.53;28.47;;;5.30;99.90;;;;;;4968959;28;20074;-80
2022/11/18 06:48:47;;;;;;;62.70;29.10;;;5.30;99.90;;;;;;4947056;28;20106;-78
2022/11/18 06:51:13;;;;;;;57.63;27.87;;;5.30;99.90;;;;;;4962965;28;20575;-79
2022/11/18 06:53:39;;;;;;;57.33;28.77;;;5.40;99.90;;;;;;4966674;28;20046;-79
2022/11/18 06:56:07;;;;;;;64.10;27.83;;;5.20;99.90;;;;;;4948692;28;20066;-79
2022/11/18 06:58:33;;;;;;;61.20;28.67;;;5.30;99.90;;;;;;4955215;28;20050;-81
2022/11/18 07:01:15;;;;;;;58.57;28.53;;;5.40;99.90;;;;;;4965966;28;20502;-79
2022/11/18 07:03:42;;;;;;;57.33;28.17;;;5.20;99.90;;;;;;4968857;28;20057;-79
2022/11/18 07:06:09;;;;;;;58.47;28.50;;;5.20;99.90;;;;;;4967549;28;20046;-79
2022/11/18 07:08:36;;;;;;;60.03;28.07;;;5.20;99.90;;;;;;4955900;28;20122;-80
2022/11/18 07:11:04;;;;;;;57.30;30.00;;;5.40;99.90;;;;;;4967411;28;20078;-78
2022/11/18 07:13:31;;;;;;;63.07;27.63;;;5.30;99.90;;;;;;4967673;28;20054;-79
2022/11/18 07:16:04;;;;;;;57.73;28.13;;;5.30;99.90;;;;;;4968824;28;20047;-82
2022/11/18 07:18:36;;;;;;;59.73;26.63;;;5.30;99.90;;;;;;4950056;28;20193;-79
2022/11/18 07:21:07;;;;;;;57.17;27.07;;;5.30;99.90;;;;;;4965207;28;20097;-80
2022/11/18 07:23:33;;;;;;;55.97;26.67;;;5.30;99.90;;;;;;4968836;28;20405;-79
2022/11/18 07:26:00;;;;;;;58.50;28.47;;;5.20;99.90;;;;;;4961130;28;20044;-80
2022/11/18 07:28:27;;;;;;;59.23;27.97;;;5.10;99.90;;;;;;4943719;28;20043;-79
2022/11/18 07:30:58;;;;;;;55.00;27.90;;;5.30;99.90;;;;;;4965152;28;20515;-80
2022/11/18 07:33:24;;;;;;;56.20;27.53;;;5.20;99.90;;;;;;4968205;28;20046;-79
2022/11/18 07:35:50;;;;;;;60.43;28.23;;;5.10;99.90;;;;;;4967292;28;20058;-79
2022/11/18 07:38:15;;;;;;;54.80;26.40;;;5.10;99.90;;;;;;4947018;28;20113;-82
2022/11/18 07:40:41;;;;;;;52.93;27.77;;;5.20;99.90;;;;;;4950531;28;20461;-79
2022/11/18 07:43:07;;;;;;;60.87;27.57;;;5.20;99.90;;;;;;4965776;28;20054;-79
2022/11/18 07:45:32;;;;;;;54.83;27.00;;;5.10;99.90;;;;;;4967582;28;20055;-79
2022/11/18 07:47:58;;;;;;;70.00;29.10;;;5.10;99.90;;;;;;4948016;28;20118;-79
2022/11/18 07:50:24;;;;;;;66.93;30.50;;;5.10;99.90;;;;;;4960307;28;20057;-79
2022/11/18 07:52:49;;;;;;;65.67;30.20;;;5.20;99.90;;;;;;4963394;28;20050;-79
2022/11/18 07:55:15;;;;;;;64.37;30.37;;;5.20;99.90;;;;;;4967747;28;20067;-79
2022/11/18 07:57:41;;;;;;;63.53;31.27;;;5.00;99.90;;;;;;4953202;28;20066;-80
2022/11/18 08:00:07;;;;;;;65.53;30.93;;;5.10;99.90;;;;;;4965957;28;20047;-81
2022/11/18 08:02:33;;;;;;;60.53;30.73;;;5.10;99.90;;;;;;4964301;28;20125;-78
2022/11/18 08:04:58;;;;;;;67.80;29.87;;;5.00;99.90;;;;;;4965264;28;20047;-79
2022/11/18 08:07:24;;;;;;;61.47;30.30;;;5.10;99.90;;;;;;4942745;28;20113;-81
2022/11/18 08:09:50;;;;;;;65.23;31.57;;;5.20;99.90;;;;;;4949335;28;20059;-80
2022/11/18 08:12:15;;;;;;;57.60;31.33;;;5.10;99.90;;;;;;4934321;28;20114;-79
2022/11/18 08:14:41;;;;;;;60.37;30.03;;;5.20;99.90;;;;;;4943416;28;20043;-79
2022/11/18 08:17:06;;;;;;;61.93;30.87;;;5.20;99.90;;;;;;4925994;28;20638;-79
2022/11/18 08:19:35;;;;;;;53.73;29.50;;;5.20;99.90;;;;;;4941609;28;20094;-80
2022/11/18 08:22:01;;;;;;;57.10;28.80;;;5.20;99.90;;;;;;4933450;28;20497;-81
2022/11/18 08:24:27;;;;;;;51.10;28.67;;;5.00;99.90;;;;;;4940025;28;20141;-82
2022/11/18 08:26:52;;;;;;;60.50;28.60;;;5.10;99.90;;;;;;4903953;28;20063;-80
2022/11/18 08:29:18;;;;;;;53.47;28.10;;;5.00;99.90;;;;;;4933051;28;20059;-82
2022/11/18 08:31:43;;;;;;;45.30;24.93;;;4.90;99.90;;;;;;4932746;28;20154;-80
2022/11/18 08:34:09;;;;;;;51.20;25.97;;;5.10;99.90;;;;;;4932111;28;20521;-82
2022/11/18 08:36:36;;;;;;;52.80;25.93;;;5.00;99.90;;;;;;4931222;28;20051;-82
2022/11/18 08:39:05;;;;;;;44.80;24.77;;;5.10;99.90;;;;;;4942542;28;20105;-79
2022/11/18 08:41:34;;;;;;;51.43;26.07;;;5.00;99.90;;;;;;4926687;28;20149;-80
2022/11/18 08:44:00;;;;;;;51.47;26.07;;;5.00;99.90;;;;;;4936193;28;20074;-84
2022/11/18 08:46:28;;;;;;;46.10;24.77;;;5.10;99.90;;;;;;4933256;28;20592;-79
2022/11/18 08:48:54;;;;;;;50.00;25.07;;;5.20;99.90;;;;;;4931762;28;20051;-83
2022/11/18 08:51:20;;;;;;;52.03;26.30;;;5.10;99.90;;;;;;4937487;28;20097;-81
2022/11/18 08:53:45;;;;;;;45.80;26.13;;;5.10;99.90;;;;;;4932947;28;20055;-79
2022/11/18 08:56:15;;;;;;;45.83;24.73;;;5.00;99.90;;;;;;4928301;28;20173;-80
2022/11/18 08:58:41;;;;;;;42.63;25.50;;;5.10;99.90;;;;;;4926080;28;20043;-83
2022/11/18 09:01:07;;;;;;;48.20;27.23;;;5.10;99.90;;;;;;4915296;28;20103;-82
2022/11/18 09:03:33;;;;;;;46.47;23.90;;;5.00;99.90;;;;;;4949153;28;20055;-81
2022/11/18 09:06:20;;;;;;;45.13;26.63;;;5.10;99.90;;;;;;4938624;28;20094;-83
2022/11/18 09:08:46;;;;;;;49.13;26.40;;;5.10;99.90;;;;;;4908750;28;20456;-82
2022/11/18 09:11:17;;;;;;;49.07;26.83;;;5.10;99.90;;;;;;4936505;28;20731;-80
2022/11/18 09:13:43;;;;;;;44.28;26.80;;;5.00;99.90;;;;;;4920355;28;20082;-81
2022/11/18 09:16:09;;;;;;;38.67;24.63;;;5.10;99.90;;;;;;4937024;28;20514;-84
2022/11/18 09:18:35;;;;;;;44.77;25.57;;;5.20;99.90;;;;;;4920159;28;20058;-79
2022/11/18 09:21:03;;;;;;;42.17;24.70;;;5.10;99.90;;;;;;4938678;28;20537;-83
2022/11/18 09:23:31;;;;;;;39.50;22.17;;;5.20;99.90;;;;;;4938408;28;20066;-85
2022/11/18 09:26:08;;;;;;;41.60;23.90;;;5.10;99.90;;;;;;4938527;28;20035;-82
2022/11/18 09:28:34;;;;;;;39.50;23.83;;;5.10;99.90;;;;;;4909292;28;20066;-81
2022/11/18 09:31:08;;;;;;;42.83;23.67;;;5.10;99.90;;;;;;4942283;28;20047;-79
2022/11/18 09:33:35;;;;;;;40.23;24.17;;;5.00;99.90;;;;;;4943938;28;20496;-84
2022/11/18 09:36:01;;;;;;;36.40;22.20;;;5.00;99.90;;;;;;4919710;28;20134;-81
2022/11/18 09:38:31;;;;;;;36.23;22.47;;;5.00;99.90;;;;;;4928313;28;20133;-83
2022/11/18 09:40:56;;;;;;;39.43;23.57;;;5.00;99.90;;;;;;4930130;28;20101;-81
2022/11/18 09:43:41;;;;;;;44.23;25.07;;;5.20;99.90;;;;;;4930874;28;20043;-81
2022/11/18 09:46:25;;;;;;;46.90;24.80;;;5.10;99.90;;;;;;4938667;28;20055;-86
2022/11/18 09:51:43;;;;;;;42.37;25.70;;;5.10;99.90;;;;;;4947343;28;20057;-84
2022/11/18 09:54:23;;;;;;;38.23;22.10;;;5.10;99.90;;;;;;4946662;28;20543;-83
2022/11/18 09:56:51;;;;;;;34.97;20.63;;;5.10;99.90;;;;;;4904236;28;20445;-84
2022/11/18 09:59:20;;;;;;;34.53;19.77;;;5.00;99.90;;;;;;4935797;28;20051;-83
2022/11/18 10:01:48;;;;;;;39.00;23.83;;;5.00;99.90;;;;;;4936605;28;20054;-80
2022/11/18 10:04:16;;;;;;;47.77;25.07;;;5.00;99.90;;;;;;4932703;28;20059;-84
2022/11/18 10:06:43;;;;;;;49.07;26.30;;;5.00;99.90;;;;;;4924488;28;21030;-84
2022/11/18 10:09:34;;;;;;;45.93;23.57;;;5.00;99.90;;;;;;4945150;28;20043;-82
2022/11/18 10:12:31;;;;;;;42.83;23.40;;;4.90;99.90;;;;;;4941824;28;20439;-79
2022/11/18 10:15:12;;;;;;;42.87;23.23;;;4.90;99.90;;;;;;4949136;28;20059;-84
2022/11/18 10:17:57;;;;;;;44.63;23.80;;;4.90;99.90;;;;;;4925169;28;20491;-81
2022/11/18 10:20:28;;;;;;;39.80;21.40;;;4.90;99.90;;;;;;4940611;28;20089;-84
2022/11/18 10:23:10;;;;;;;40.45;22.75;;;4.90;99.90;;;;;;4936448;28;20142;-79
2022/11/18 10:25:35;;;;;;;43.65;23.75;;;4.90;99.90;;;;;;4933897;28;20058;-82
2022/11/18 10:28:19;;;;;;;43.73;24.40;;;5.00;99.90;;;;;;4927535;28;20118;-79
2022/11/18 10:30:45;;;;;;;43.60;23.90;;;4.90;99.90;;;;;;4939017;28;20051;-81
2022/11/18 10:33:22;;;;;;;41.60;24.30;;;4.80;99.90;;;;;;4934094;28;20152;-83
2022/11/18 10:35:49;;;;;;;44.67;25.70;;;4.80;99.90;;;;;;4936381;28;20043;-81
2022/11/18 10:38:18;;;;;;;43.70;23.67;;;4.80;99.90;;;;;;4921933;28;20039;-81
2022/11/18 10:41:01;;;;;;;46.63;25.17;;;4.70;99.90;;;;;;4937385;28;20051;-80
2022/11/18 10:43:47;;;;;;;38.63;23.20;;;4.70;99.90;;;;;;4933786;28;20437;-79
2022/11/18 10:46:26;;;;;;;41.90;24.43;;;4.70;99.90;;;;;;4927464;28;20055;-80
2022/11/18 10:49:16;;;;;;;45.63;24.07;;;4.70;99.90;;;;;;4934324;28;20091;-83
2022/11/18 10:52:04;;;;;;;46.47;24.93;;;4.80;99.90;;;;;;4927753;28;20510;-81
2022/11/18 10:54:30;;;;;;;48.40;25.03;;;4.70;99.90;;;;;;4918412;28;20707;-80
2022/11/18 10:57:05;;;;;;;51.20;25.13;;;4.60;99.90;;;;;;4919735;28;20153;-82
2022/11/18 10:59:41;;;;;;;45.40;23.03;;;4.60;99.90;;;;;;4935522;28;20097;-80
2022/11/18 11:02:24;;;;;;;49.83;24.03;;;4.50;99.90;;;;;;4936298;28;20113;-83
2022/11/18 11:04:52;;;;;;;47.53;23.17;;;4.50;99.90;;;;;;4936658;28;20091;-83
2022/11/18 11:07:24;;;;;;;47.30;25.53;;;4.40;99.90;;;;;;4906372;28;20054;-79
2022/11/18 11:10:04;;;;;;;53.70;27.60;;;4.40;99.90;;;;;;4935883;28;20094;-82
2022/11/18 11:12:45;;;;;;;49.13;24.92;;;4.50;99.90;;;;;;4935564;28;20571;-80
2022/11/18 11:15:35;;;;;;;60.58;27.85;;;4.30;99.90;;;;;;4923785;28;20149;-82
2022/11/18 11:20:53;;;;;;;55.03;27.23;;;4.30;99.90;;;;;;4936660;28;20121;-80
2022/11/18 11:23:19;;;;;;;57.63;28.30;;;4.40;99.90;;;;;;4934001;28;20054;-80
2022/11/18 11:25:56;;;;;;;57.03;27.00;;;4.20;99.90;;;;;;4943193;28;20175;-80
2022/11/18 11:28:42;;;;;;;52.40;27.27;;;4.30;99.90;;;;;;4925812;28;20065;-82
2022/11/18 11:31:23;;;;;;;53.53;26.83;;;4.20;99.90;;;;;;4918776;28;20126;-79
2022/11/18 11:34:10;;;;;;;41.83;23.17;;;4.30;99.90;;;;;;4932797;28;20074;-82
2022/11/18 11:36:43;;;;;;;49.43;25.57;;;4.20;99.90;;;;;;4922413;28;20650;-83
2022/11/18 11:39:46;;;;;;;42.90;21.37;;;4.10;99.90;;;;;;4936193;28;20102;-79
2022/11/18 11:42:15;;;;;;;44.53;22.87;;;4.10;99.90;;;;;;4932565;28;20049;-80
2022/11/18 11:44:58;;;;;;;45.83;25.53;;;4.10;99.90;;;;;;4939337;28;20055;-80
2022/11/18 11:47:55;;;;;;;48.53;25.17;;;4.00;99.90;;;;;;4920076;28;20106;-81
2022/11/18 11:50:55;;;;;;;60.87;28.77;;;4.00;99.90;;;;;;4934116;28;20138;-80
2022/11/18 11:53:26;;;;;;;52.07;26.53;;;4.00;99.90;;;;;;4931488;28;20431;-82
2022/11/18 11:56:03;;;;;;;48.47;26.42;;;4.00;99.90;;;;;;4934422;28;20094;-81
2022/11/18 11:58:33;;;;;;;51.53;26.77;;;3.90;99.90;;;;;;4918140;28;20055;-84
2022/11/18 12:01:25;;;;;;;56.30;27.30;;;3.90;99.90;;;;;;4917974;28;20486;-80
2022/11/18 12:03:56;;;;;;;62.40;30.50;;;3.90;99.90;;;;;;4927518;28;20110;-80
2022/11/18 12:06:21;;;;;;;55.10;27.75;;;3.80;99.90;;;;;;4925761;28;20062;-83
2022/11/18 12:08:58;;;;;;;61.50;29.43;;;3.90;99.90;;;;;;4927447;28;20054;-80
2022/11/18 12:11:42;;;;;;;73.07;31.33;;;3.90;99.90;;;;;;4934860;28;20493;-81
2022/11/18 12:14:41;;;;;;;64.83;30.40;;;3.80;99.90;;;;;;4916070;28;20055;-80
2022/11/18 12:17:27;;;;;;;70.00;33.27;;;3.80;99.90;;;;;;4922366;28;20537;-79
2022/11/18 12:19:53;;;;;;;63.63;31.07;;;3.80;99.90;;;;;;4939832;28;20101;-83
2022/11/18 12:22:19;;;;;;;75.87;33.90;;;3.80;99.90;;;;;;4940556;28;20118;-79
2022/11/18 12:24:44;;;;;;;75.97;33.67;;;3.80;99.90;;;;;;4945518;28;20058;-83
2022/11/18 12:27:36;;;;;;;60.83;30.13;;;3.70;99.90;;;;;;4931748;28;20612;-80
2022/11/18 12:30:03;;;;;;;77.32;35.50;;;3.70;99.90;;;;;;4936386;28;20050;-79
2022/11/18 12:32:42;;;;;;;68.77;33.17;;;3.70;99.90;;;;;;4939375;28;20097;-84
2022/11/18 12:35:10;;;;;;;73.40;32.57;;;3.70;99.90;;;;;;4939392;28;20509;-79
2022/11/18 12:37:39;;;;;;;67.20;31.53;;;3.60;99.90;;;;;;4926807;28;20125;-79
2022/11/18 12:40:07;;;;;;;65.53;32.07;;;3.70;99.90;;;;;;4934320;28;20445;-80
2022/11/18 12:45:45;;;;;;;58.30;30.70;;;3.60;99.90;;;;;;4938442;28;20073;-80
2022/11/18 12:48:23;;;;;;;58.67;28.67;;;3.60;99.90;;;;;;4926418;28;20493;-83
2022/11/18 12:51:00;;;;;;;53.67;28.73;;;3.60;99.90;;;;;;4938685;28;20084;-80
2022/11/18 12:53:43;;;;;;;50.20;27.40;;;3.60;99.90;;;;;;4921183;28;20031;-83
2022/11/18 12:56:33;;;;;;;52.67;28.27;;;3.50;99.90;;;;;;4931433;28;20592;-81
2022/11/18 12:59:00;;;;;;;51.50;27.10;;;3.60;99.90;;;;;;4928521;28;20059;-79
2022/11/18 13:01:29;;;;;;;45.97;25.33;;;3.50;99.90;;;;;;4938646;28;20509;-80
2022/11/18 13:04:13;;;;;;;47.97;25.00;;;3.50;99.90;;;;;;4941103;28;20051;-79
2022/11/18 13:06:40;;;;;;;39.50;22.37;;;3.40;99.90;;;;;;4915025;28;20102;-80
2022/11/18 13:09:34;;;;;;;43.13;24.10;;;3.40;99.90;;;;;;4917870;28;20540;-82
2022/11/18 13:12:12;;;;;;;46.07;25.20;;;3.40;99.90;;;;;;4929954;28;20414;-80
2022/11/18 13:17:53;;;;;;;44.70;24.43;;;3.40;99.90;;;;;;4924635;28;20043;-83
2022/11/18 13:20:26;;;;;;;46.90;25.53;;;3.40;99.90;;;;;;4948117;28;20063;-84
2022/11/18 13:25:43;;;;;;;48.80;25.67;;;3.40;99.90;;;;;;4947543;28;20059;-84
2022/11/18 13:28:31;;;;;;;46.47;25.80;;;3.40;99.90;;;;;;4924055;28;20061;-82
2022/11/18 13:31:16;;;;;;;45.13;25.67;;;3.30;99.90;;;;;;4944924;28;20497;-82